createdAt,value
2016-11-10T00:01:00.693Z,19.92
2016-11-10T00:02:14.260Z,19.99
2016-11-10T00:03:26.781Z,19.96
2016-11-10T00:04:39.790Z,19.92
2016-11-10T00:05:53.409Z,19.97
2016-11-10T00:07:07.052Z,19.87
2016-11-10T00:08:19.587Z,19.92
2016-11-10T00:09:32.686Z,19.97
2016-11-10T00:10:46.418Z,19.92
2016-11-10T00:11:59.490Z,19.81
2016-11-10T00:13:13.139Z,19.82
2016-11-10T00:14:26.240Z,19.92
2016-11-10T00:15:39.858Z,19.93
2016-11-10T00:16:53.528Z,19.96
2016-11-10T00:18:06.519Z,19.89
2016-11-10T00:19:19.083Z,19.92
2016-11-10T00:20:32.173Z,19.92
2016-11-10T00:21:44.703Z,20.04
2016-11-10T00:22:57.255Z,20.02
2016-11-10T00:24:10.897Z,20.04
2016-11-10T00:25:24.537Z,19.99
2016-11-10T00:26:37.085Z,20.05
2016-11-10T00:27:50.691Z,20.05
2016-11-10T00:29:03.791Z,20.05
2016-11-10T00:30:16.823Z,20.05
2016-11-10T00:31:29.887Z,20.09
2016-11-10T00:32:42.998Z,20.02
2016-11-10T00:33:54.949Z,20.09
2016-11-10T00:35:08.511Z,20.02
2016-11-10T00:36:21.036Z,19.99
2016-11-10T00:37:34.134Z,20
2016-11-10T00:38:46.779Z,19.99
2016-11-10T00:40:00.372Z,19.96
2016-11-10T00:41:13.504Z,19.94
2016-11-10T00:42:27.118Z,19.92
2016-11-10T00:43:40.750Z,19.97
2016-11-10T00:44:53.956Z,19.94
2016-11-10T00:46:06.964Z,19.97
2016-11-10T00:47:20.050Z,19.94
2016-11-10T00:48:33.675Z,20.02
2016-11-10T00:49:46.750Z,20.04
2016-11-10T00:50:59.848Z,20.07
2016-11-10T00:52:11.847Z,20.08
2016-11-10T00:53:24.381Z,20.12
2016-11-10T00:54:37.943Z,20.14
2016-11-10T00:55:51.058Z,20.07
2016-11-10T00:57:04.622Z,20.14
2016-11-10T00:58:18.265Z,20.08
2016-11-10T00:59:31.357Z,20.05
2016-11-10T01:00:44.988Z,20.02
2016-11-10T01:01:58.597Z,20.02
2016-11-10T01:03:10.636Z,20
2016-11-10T01:04:22.637Z,20
2016-11-10T01:05:36.248Z,20.02
2016-11-10T01:06:48.833Z,19.99
2016-11-10T01:08:01.892Z,19.97
2016-11-10T01:09:15.459Z,20.04
2016-11-10T01:10:29.008Z,20.04
2016-11-10T01:11:41.570Z,20.04
2016-11-10T01:12:54.652Z,20.04
2016-11-10T01:14:07.676Z,20.12
2016-11-10T01:15:20.711Z,20.11
2016-11-10T01:16:33.817Z,20.17
2016-11-10T01:17:47.337Z,20.15
2016-11-10T01:19:00.858Z,20.22
2016-11-10T01:20:13.433Z,20.18
2016-11-10T01:21:26.462Z,20.09
2016-11-10T01:22:39.027Z,20.12
2016-11-10T01:23:52.134Z,20.04
2016-11-10T01:25:04.662Z,20.02
2016-11-10T01:26:17.713Z,20.08
2016-11-10T01:27:30.795Z,20.08
2016-11-10T01:28:43.829Z,20.15
2016-11-10T01:29:56.926Z,20.12
2016-11-10T01:31:10.418Z,20.07
2016-11-10T01:32:23.013Z,20.09
2016-11-10T01:33:36.098Z,20.08
2016-11-10T01:34:48.153Z,20.11
2016-11-10T01:36:01.281Z,20.04
2016-11-10T01:37:14.885Z,20.02
2016-11-10T01:38:27.477Z,20.02
2016-11-10T01:39:41.046Z,20.04
2016-11-10T01:40:53.682Z,19.93
2016-11-10T01:42:07.338Z,19.99
2016-11-10T01:43:20.404Z,19.92
2016-11-10T01:44:33.515Z,19.94
2016-11-10T01:45:47.206Z,19.96
2016-11-10T01:46:59.767Z,19.87
2016-11-10T01:48:12.828Z,19.93
2016-11-10T01:49:25.423Z,19.79
2016-11-10T01:50:39.076Z,19.81
2016-11-10T01:51:52.704Z,19.68
2016-11-10T01:53:04.681Z,19.7
2016-11-10T01:54:18.335Z,19.62
2016-11-10T01:55:31.930Z,19.62
2016-11-10T01:56:44.444Z,19.62
2016-11-10T01:57:58.043Z,19.59
2016-11-10T01:59:11.654Z,19.59
2016-11-10T02:00:25.274Z,19.6
2016-11-10T02:01:38.398Z,19.63
2016-11-10T02:02:51.999Z,19.52
2016-11-10T02:04:05.576Z,19.62
2016-11-10T02:05:18.156Z,19.54
2016-11-10T02:06:31.852Z,19.52
2016-11-10T02:07:45.503Z,19.45
2016-11-10T02:08:59.249Z,19.49
2016-11-10T02:10:12.327Z,19.56
2016-11-10T02:11:25.447Z,19.52
2016-11-10T02:12:39.094Z,19.47
2016-11-10T02:13:52.226Z,19.59
2016-11-10T02:15:05.855Z,19.49
2016-11-10T02:16:19.491Z,19.5
2016-11-10T02:17:33.074Z,19.42
2016-11-10T02:18:46.118Z,19.49
2016-11-10T02:19:59.191Z,19.5
2016-11-10T02:21:12.308Z,19.49
2016-11-10T02:22:25.819Z,19.52
2016-11-10T02:23:38.998Z,19.5
2016-11-10T02:24:51.586Z,19.53
2016-11-10T02:26:05.128Z,19.54
2016-11-10T02:27:49.787Z,19.56
2016-11-10T02:29:02.944Z,19.53
2016-11-10T02:30:15.981Z,19.49
2016-11-10T02:31:28.466Z,19.53
2016-11-10T02:32:41.535Z,19.44
2016-11-10T02:33:54.571Z,19.44
2016-11-10T02:35:07.686Z,19.59
2016-11-10T02:36:20.731Z,19.39
2016-11-10T02:37:33.784Z,19.47
2016-11-10T02:38:46.858Z,19.44
2016-11-10T02:39:59.904Z,19.42
2016-11-10T02:41:13.538Z,19.44
2016-11-10T02:42:26.106Z,19.38
2016-11-10T02:43:39.122Z,19.37
2016-11-10T02:44:52.731Z,19.32
2016-11-10T02:46:05.268Z,19.31
2016-11-10T02:47:18.846Z,19.27
2016-11-10T02:48:32.419Z,19.17
2016-11-10T02:49:44.931Z,19.09
2016-11-10T02:50:58.611Z,18.98
2016-11-10T02:52:11.684Z,19.04
2016-11-10T02:53:24.754Z,18.86
2016-11-10T02:54:38.420Z,19.05
2016-11-10T02:55:51.476Z,18.98
2016-11-10T02:58:48.828Z,19.04
2016-11-10T03:00:02.426Z,18.97
2016-11-10T03:01:15.464Z,19.08
2016-11-10T03:02:28.609Z,19.09
2016-11-10T03:03:41.744Z,19.09
2016-11-10T03:04:54.761Z,19.16
2016-11-10T03:06:08.343Z,19.26
2016-11-10T03:07:21.442Z,19.22
2016-11-10T03:08:35.014Z,19.23
2016-11-10T03:09:48.059Z,19.22
2016-11-10T03:11:01.170Z,19.22
2016-11-10T03:12:13.655Z,19.22
2016-11-10T03:13:26.786Z,19.31
2016-11-10T03:14:39.312Z,19.32
2016-11-10T03:15:52.993Z,19.3
2016-11-10T03:17:05.999Z,19.3
2016-11-10T03:20:03.245Z,19.31
2016-11-10T03:21:16.321Z,19.31
2016-11-10T03:22:29.921Z,19.34
2016-11-10T03:23:43.540Z,19.32
2016-11-10T03:24:56.625Z,19.31
2016-11-10T03:26:08.638Z,19.35
2016-11-10T03:27:22.295Z,19.35
2016-11-10T03:28:35.921Z,19.37
2016-11-10T03:29:49.501Z,19.32
2016-11-10T03:31:02.097Z,19.31
2016-11-10T03:32:30.293Z,19.31
2016-11-10T03:33:43.774Z,19.27
2016-11-10T03:34:57.349Z,19.34
2016-11-10T03:36:10.354Z,19.31
2016-11-10T03:37:23.388Z,19.31
2016-11-10T03:38:37.001Z,19.2
2016-11-10T03:39:50.034Z,19.26
2016-11-10T03:41:03.547Z,19.31
2016-11-10T03:42:16.119Z,19.23
2016-11-10T03:43:29.159Z,19.27
2016-11-10T03:44:41.697Z,19.32
2016-11-10T03:45:54.802Z,19.24
2016-11-10T03:47:08.340Z,19.27
2016-11-10T03:48:21.387Z,19.26
2016-11-10T03:49:35.010Z,19.3
2016-11-10T03:50:48.637Z,19.27
2016-11-10T03:52:01.692Z,19.3
2016-11-10T03:53:14.737Z,19.22
2016-11-10T03:54:28.272Z,19.24
2016-11-10T03:55:41.385Z,19.2
2016-11-10T03:56:54.910Z,19.2
2016-11-10T03:58:08.436Z,19.26
2016-11-10T03:59:21.497Z,19.2
2016-11-10T04:00:34.501Z,19.19
2016-11-10T04:01:47.058Z,19.22
2016-11-10T04:02:59.512Z,19.16
2016-11-10T04:04:12.548Z,19.17
2016-11-10T04:05:26.138Z,19.17
2016-11-10T04:06:39.672Z,19.22
2016-11-10T04:07:52.712Z,19.16
2016-11-10T04:09:06.214Z,19.08
2016-11-10T04:10:19.736Z,19.19
2016-11-10T04:11:33.361Z,19.2
2016-11-10T04:12:46.360Z,19.19
2016-11-10T04:13:59.876Z,19.2
2016-11-10T04:15:13.006Z,19.22
2016-11-10T04:16:26.530Z,19.08
2016-11-10T04:17:39.595Z,19.22
2016-11-10T04:18:52.612Z,19.19
2016-11-10T04:20:05.638Z,19.22
2016-11-10T04:21:18.622Z,19.17
2016-11-10T04:22:31.648Z,19.19
2016-11-10T04:23:45.196Z,19.19
2016-11-10T04:24:57.660Z,19.16
2016-11-10T04:26:11.212Z,19.09
2016-11-10T04:27:24.181Z,19.08
2016-11-10T04:28:37.778Z,19.17
2016-11-10T04:29:50.365Z,19.12
2016-11-10T04:31:03.971Z,19.15
2016-11-10T04:32:17.513Z,19.01
2016-11-10T04:33:30.047Z,19.09
2016-11-10T04:34:43.710Z,19.09
2016-11-10T04:35:56.699Z,19.04
2016-11-10T04:37:10.246Z,19.15
2016-11-10T04:38:23.852Z,19.12
2016-11-10T04:39:36.320Z,19.08
2016-11-10T04:40:49.884Z,19.12
2016-11-10T04:42:02.483Z,19.07
2016-11-10T04:43:16.099Z,19.01
2016-11-10T04:44:29.110Z,18.96
2016-11-10T04:45:42.198Z,18.94
2016-11-10T04:46:55.798Z,18.94
2016-11-10T04:48:09.296Z,18.94
2016-11-10T04:49:22.827Z,18.88
2016-11-10T04:50:36.440Z,18.89
2016-11-10T04:51:48.951Z,19.04
2016-11-10T04:53:00.974Z,18.96
2016-11-10T04:54:13.978Z,18.89
2016-11-10T04:55:26.992Z,18.96
2016-11-10T04:56:40.029Z,18.82
2016-11-10T04:57:53.552Z,18.82
2016-11-10T04:59:07.059Z,18.76
2016-11-10T05:00:20.642Z,18.66
2016-11-10T05:01:33.615Z,18.79
2016-11-10T05:02:47.153Z,18.67
2016-11-10T05:04:31.814Z,18.71
2016-11-10T05:05:45.396Z,18.67
2016-11-10T05:06:58.945Z,18.71
2016-11-10T05:08:12.518Z,18.74
2016-11-10T05:09:25.569Z,18.67
2016-11-10T05:10:39.101Z,18.64
2016-11-10T05:11:52.172Z,18.66
2016-11-10T05:13:05.742Z,18.63
2016-11-10T05:14:18.731Z,18.58
2016-11-10T05:15:31.276Z,18.58
2016-11-10T05:16:43.243Z,18.6
2016-11-10T05:17:56.350Z,18.58
2016-11-10T05:19:09.994Z,18.67
2016-11-10T05:20:23.588Z,18.66
2016-11-10T05:21:36.585Z,18.61
2016-11-10T05:22:50.224Z,18.57
2016-11-10T05:24:03.288Z,18.52
2016-11-10T05:25:16.864Z,18.58
2016-11-10T05:26:29.413Z,18.58
2016-11-10T05:27:42.935Z,18.6
2016-11-10T05:28:55.977Z,18.56
2016-11-10T05:30:09.085Z,18.61
2016-11-10T05:31:22.630Z,18.45
2016-11-10T05:32:35.695Z,18.58
2016-11-10T05:33:48.787Z,18.52
2016-11-10T05:35:02.352Z,18.56
2016-11-10T05:36:15.453Z,18.52
2016-11-10T05:37:27.948Z,18.54
2016-11-10T05:38:41.586Z,18.52
2016-11-10T05:39:55.098Z,18.45
2016-11-10T05:41:08.156Z,18.49
2016-11-10T05:42:21.185Z,18.49
2016-11-10T05:43:34.224Z,18.52
2016-11-10T05:44:47.361Z,18.54
2016-11-10T05:46:00.349Z,18.54
2016-11-10T05:47:12.783Z,18.52
2016-11-10T05:48:25.364Z,18.54
2016-11-10T05:49:38.983Z,18.51
2016-11-10T05:50:52.055Z,18.6
2016-11-10T05:52:05.675Z,18.54
2016-11-10T05:53:19.272Z,18.58
2016-11-10T05:54:32.357Z,18.64
2016-11-10T05:55:45.399Z,18.61
2016-11-10T05:56:58.988Z,18.54
2016-11-10T05:58:12.077Z,18.56
2016-11-10T05:59:25.174Z,18.54
2016-11-10T06:00:38.193Z,18.58
2016-11-10T06:01:51.263Z,18.45
2016-11-10T06:03:03.788Z,18.43
2016-11-10T06:04:17.322Z,18.54
2016-11-10T06:05:30.933Z,18.52
2016-11-10T06:06:44.466Z,18.54
2016-11-10T06:07:57.524Z,18.52
2016-11-10T06:09:10.533Z,18.49
2016-11-10T06:10:23.547Z,18.48
2016-11-10T06:11:35.992Z,18.49
2016-11-10T06:12:49.620Z,18.57
2016-11-10T06:14:01.632Z,18.52
2016-11-10T06:15:14.625Z,18.48
2016-11-10T06:16:28.215Z,18.49
2016-11-10T06:17:41.832Z,18.51
2016-11-10T06:18:55.400Z,18.56
2016-11-10T06:20:07.861Z,18.46
2016-11-10T06:21:20.973Z,18.49
2016-11-10T06:22:34.578Z,18.48
2016-11-10T06:23:47.629Z,18.45
2016-11-10T06:25:00.622Z,18.52
2016-11-10T06:26:12.714Z,18.49
2016-11-10T06:27:25.791Z,18.54
2016-11-10T06:28:38.890Z,18.63
2016-11-10T06:29:51.929Z,18.58
2016-11-10T06:31:04.932Z,18.46
2016-11-10T06:32:17.528Z,18.54
2016-11-10T06:33:31.047Z,18.52
2016-11-10T06:34:43.007Z,18.56
2016-11-10T06:35:56.048Z,18.57
2016-11-10T06:37:08.064Z,18.48
2016-11-10T06:38:20.550Z,18.46
2016-11-10T06:39:33.567Z,18.49
2016-11-10T06:40:47.090Z,18.46
2016-11-10T06:42:00.150Z,18.54
2016-11-10T06:43:12.093Z,18.57
2016-11-10T06:44:24.639Z,18.58
2016-11-10T06:45:36.663Z,18.51
2016-11-10T06:46:50.242Z,18.56
2016-11-10T06:49:45.859Z,18.64
2016-11-10T06:50:58.977Z,18.66
2016-11-10T06:52:12.536Z,18.61
2016-11-10T06:53:25.649Z,18.66
2016-11-10T06:54:38.688Z,18.64
2016-11-10T06:55:50.680Z,18.6
2016-11-10T06:57:04.273Z,18.61
2016-11-10T06:58:17.347Z,18.66
2016-11-10T06:59:30.955Z,18.67
2016-11-10T07:00:44.025Z,18.67
2016-11-10T07:01:57.542Z,18.67
2016-11-10T07:03:10.557Z,18.66
2016-11-10T07:04:23.639Z,18.64
2016-11-10T07:05:37.136Z,18.64
2016-11-10T07:06:50.707Z,18.6
2016-11-10T07:08:04.251Z,18.66
2016-11-10T07:09:16.280Z,18.67
2016-11-10T07:10:29.397Z,18.63
2016-11-10T07:11:42.400Z,18.6
2016-11-10T07:12:54.856Z,18.56
2016-11-10T07:14:07.393Z,18.57
2016-11-10T07:15:21.032Z,18.58
2016-11-10T07:16:34.592Z,18.52
2016-11-10T07:17:47.106Z,18.42
2016-11-10T07:19:00.639Z,18.6
2016-11-10T07:20:13.187Z,18.51
2016-11-10T07:21:26.254Z,18.56
2016-11-10T07:22:39.263Z,18.51
2016-11-10T07:23:52.969Z,18.48
2016-11-10T07:25:06.531Z,18.46
2016-11-10T07:26:19.528Z,18.43
2016-11-10T07:27:32.058Z,18.46
2016-11-10T07:28:45.583Z,18.52
2016-11-10T07:29:58.576Z,18.54
2016-11-10T07:31:11.572Z,18.51
2016-11-10T07:32:24.584Z,18.49
2016-11-10T07:33:37.655Z,18.54
2016-11-10T07:34:50.662Z,18.43
2016-11-10T07:36:03.704Z,18.54
2016-11-10T07:37:17.267Z,18.51
2016-11-10T07:38:30.873Z,18.49
2016-11-10T07:39:43.972Z,18.48
2016-11-10T07:40:57.532Z,18.56
2016-11-10T07:42:10.563Z,18.54
2016-11-10T07:43:23.625Z,18.51
2016-11-10T07:44:36.695Z,18.48
2016-11-10T07:45:50.253Z,18.49
2016-11-10T07:47:03.786Z,18.48
2016-11-10T07:48:17.422Z,18.43
2016-11-10T07:49:30.437Z,18.42
2016-11-10T07:50:43.407Z,18.48
2016-11-10T07:51:56.979Z,18.42
2016-11-10T07:53:10.114Z,18.43
2016-11-10T07:54:23.107Z,18.48
2016-11-10T07:55:36.219Z,18.54
2016-11-10T07:56:49.812Z,18.52
2016-11-10T07:58:02.816Z,18.56
2016-11-10T07:59:15.307Z,18.51
2016-11-10T08:00:28.881Z,18.48
2016-11-10T08:01:40.880Z,18.54
2016-11-10T08:02:54.468Z,18.57
2016-11-10T08:04:08.019Z,18.57
2016-11-10T08:05:21.559Z,18.41
2016-11-10T08:06:35.125Z,18.52
2016-11-10T08:07:48.179Z,18.43
2016-11-10T08:09:01.704Z,18.43
2016-11-10T08:10:15.241Z,18.42
2016-11-10T08:11:28.958Z,18.43
2016-11-10T08:12:42.034Z,18.45
2016-11-10T08:13:55.091Z,18.45
2016-11-10T08:15:08.650Z,18.34
2016-11-10T08:16:21.687Z,18.42
2016-11-10T08:17:35.265Z,18.45
2016-11-10T08:18:48.924Z,18.45
2016-11-10T08:20:01.925Z,18.43
2016-11-10T08:21:15.016Z,18.39
2016-11-10T08:22:28.587Z,18.45
2016-11-10T08:23:42.123Z,18.48
2016-11-10T08:24:55.621Z,18.43
2016-11-10T08:26:08.738Z,18.49
2016-11-10T08:27:22.235Z,18.43
2016-11-10T08:28:35.843Z,18.51
2016-11-10T08:29:49.524Z,18.48
2016-11-10T08:31:02.057Z,18.51
2016-11-10T08:32:15.100Z,18.45
2016-11-10T08:33:28.126Z,18.66
2016-11-10T08:34:41.174Z,18.74
2016-11-10T08:35:54.789Z,18.82
2016-11-10T08:37:07.828Z,18.89
2016-11-10T08:38:21.432Z,18.96
2016-11-10T08:39:34.536Z,19
2016-11-10T08:40:47.568Z,19.08
2016-11-10T08:42:01.225Z,19.16
2016-11-10T08:43:13.758Z,19.27
2016-11-10T08:44:26.826Z,19.59
2016-11-10T08:45:39.868Z,19.6
2016-11-10T08:46:52.985Z,19.78
2016-11-10T08:48:05.571Z,19.86
2016-11-10T08:49:18.607Z,20.07
2016-11-10T08:50:32.238Z,20.14
2016-11-10T08:51:45.265Z,20.44
2016-11-10T08:52:58.862Z,20.5
2016-11-10T08:54:10.841Z,20.71
2016-11-10T08:55:23.424Z,20.77
2016-11-10T08:56:37.055Z,21.01
2016-11-10T08:57:50.627Z,20.97
2016-11-10T08:59:03.703Z,21.14
2016-11-10T09:00:16.879Z,21.29
2016-11-10T09:01:29.419Z,21.4
2016-11-10T09:02:42.437Z,21.62
2016-11-10T09:03:56.017Z,21.77
2016-11-10T09:05:09.089Z,21.91
2016-11-10T09:06:22.703Z,21.97
2016-11-10T09:07:34.735Z,22.03
2016-11-10T09:08:46.755Z,22.13
2016-11-10T09:10:31.463Z,22.21
2016-11-10T09:11:44.616Z,22.33
2016-11-10T09:12:57.189Z,22.46
2016-11-10T09:14:10.766Z,22.53
2016-11-10T09:15:23.314Z,22.64
2016-11-10T09:16:36.947Z,22.73
2016-11-10T09:17:50.039Z,22.86
2016-11-10T09:19:03.091Z,22.99
2016-11-10T09:20:15.701Z,23.04
2016-11-10T09:21:29.322Z,23.26
2016-11-10T09:22:42.381Z,23.37
2016-11-10T09:23:55.460Z,23.55
2016-11-10T09:25:09.070Z,23.79
2016-11-10T09:26:22.709Z,23.88
2016-11-10T09:27:35.875Z,23.89
2016-11-10T09:28:49.534Z,23.89
2016-11-10T09:30:03.145Z,23.89
2016-11-10T09:31:16.193Z,23.79
2016-11-10T09:32:29.838Z,23.86
2016-11-10T09:33:42.984Z,24.01
2016-11-10T09:34:56.109Z,24.11
2016-11-10T09:36:09.692Z,24.25
2016-11-10T09:37:22.733Z,24.13
2016-11-10T09:38:36.372Z,24.18
2016-11-10T09:39:50.064Z,24.31
2016-11-10T09:41:03.704Z,24.28
2016-11-10T09:42:16.263Z,24.29
2016-11-10T09:43:29.298Z,24.44
2016-11-10T09:44:42.935Z,24.44
2016-11-10T09:45:56.634Z,24.45
2016-11-10T09:47:09.265Z,24.63
2016-11-10T09:48:22.358Z,24.91
2016-11-10T09:49:36.054Z,24.91
2016-11-10T09:50:49.156Z,25.09
2016-11-10T09:52:02.261Z,25.12
2016-11-10T09:53:14.232Z,25.36
2016-11-10T09:54:27.827Z,25.41
2016-11-10T09:55:40.933Z,25.4
2016-11-10T09:56:54.506Z,25.41
2016-11-10T09:58:08.051Z,25.67
2016-11-10T09:59:21.662Z,25.66
2016-11-10T10:00:34.720Z,25.7
2016-11-10T10:01:48.296Z,25.83
2016-11-10T10:03:01.482Z,26
2016-11-10T10:04:13.982Z,26.01
2016-11-10T10:05:26.531Z,26.07
2016-11-10T10:06:39.610Z,26.12
2016-11-10T10:07:53.234Z,26.28
2016-11-10T10:09:05.814Z,26.31
2016-11-10T10:10:19.434Z,26.42
2016-11-10T10:11:32.487Z,26.36
2016-11-10T10:12:46.104Z,26.46
2016-11-10T10:13:59.765Z,26.57
2016-11-10T10:15:13.375Z,26.68
2016-11-10T10:16:26.480Z,26.8
2016-11-10T10:17:40.099Z,26.86
2016-11-10T10:18:52.713Z,26.65
2016-11-10T10:20:05.833Z,26.64
2016-11-10T10:21:19.010Z,26.57
2016-11-10T10:22:32.117Z,26.53
2016-11-10T10:23:45.184Z,26.79
2016-11-10T10:24:57.202Z,26.8
2016-11-10T10:26:09.224Z,27.04
2016-11-10T10:27:22.277Z,27.23
2016-11-10T10:28:36.056Z,27.3
2016-11-10T10:29:49.215Z,27.41
2016-11-10T10:31:02.316Z,27.6
2016-11-10T10:32:16.006Z,27.79
2016-11-10T10:33:29.227Z,27.61
2016-11-10T10:34:42.386Z,27.53
2016-11-10T10:35:55.546Z,27.47
2016-11-10T10:37:08.668Z,27.23
2016-11-10T10:38:22.264Z,27.19
2016-11-10T10:39:35.352Z,27.31
2016-11-10T10:41:20.073Z,27.31
2016-11-10T10:42:32.057Z,27.5
2016-11-10T10:43:44.681Z,27.75
2016-11-10T10:44:57.752Z,28.15
2016-11-10T10:46:10.234Z,28.37
2016-11-10T10:47:23.798Z,28.42
2016-11-10T10:48:37.329Z,28.32
2016-11-10T10:49:50.510Z,28.38
2016-11-10T10:51:03.447Z,28.44
2016-11-10T10:52:16.563Z,28.72
2016-11-10T10:53:29.683Z,28.86
2016-11-10T10:54:42.792Z,28.79
2016-11-10T10:55:56.451Z,28.62
2016-11-10T10:57:09.554Z,28.59
2016-11-10T10:58:23.253Z,28.75
2016-11-10T10:59:36.919Z,28.89
2016-11-10T11:00:49.506Z,28.98
2016-11-10T11:02:03.174Z,28.87
2016-11-10T11:03:16.747Z,28.86
2016-11-10T11:04:29.800Z,28.53
2016-11-10T11:05:43.479Z,28.43
2016-11-10T11:06:56.518Z,28.42
2016-11-10T11:08:10.197Z,28.52
2016-11-10T11:09:22.192Z,28.59
2016-11-10T11:10:34.210Z,28.59
2016-11-10T11:11:47.975Z,28.59
2016-11-10T11:13:01.111Z,28.83
2016-11-10T11:14:14.744Z,29
2016-11-10T11:15:27.861Z,28.89
2016-11-10T11:16:40.962Z,28.84
2016-11-10T11:17:54.564Z,29.02
2016-11-10T11:19:06.610Z,28.98
2016-11-10T11:20:20.203Z,29.04
2016-11-10T11:21:32.798Z,29.02
2016-11-10T11:22:46.481Z,29.13
2016-11-10T11:24:00.172Z,29.29
2016-11-10T11:25:13.310Z,28.94
2016-11-10T11:26:26.864Z,28.89
2016-11-10T11:27:40.464Z,28.94
2016-11-10T11:28:54.101Z,28.93
2016-11-10T11:30:07.115Z,28.98
2016-11-10T11:31:20.229Z,28.87
2016-11-10T11:32:33.890Z,28.87
2016-11-10T11:33:46.969Z,29
2016-11-10T11:35:00.066Z,29.21
2016-11-10T11:36:13.139Z,29.43
2016-11-10T11:37:26.781Z,29.65
2016-11-10T11:38:40.384Z,29.66
2016-11-10T11:39:54.020Z,29.77
2016-11-10T11:41:07.137Z,29.73
2016-11-10T11:42:20.817Z,29.65
2016-11-10T11:43:33.907Z,29.61
2016-11-10T11:44:47.473Z,29.62
2016-11-10T11:46:00.531Z,29.61
2016-11-10T11:47:13.682Z,29.58
2016-11-10T11:48:27.277Z,29.47
2016-11-10T11:49:40.414Z,29.39
2016-11-10T11:50:54.110Z,29.4
2016-11-10T11:52:07.167Z,29.29
2016-11-10T11:53:20.278Z,29.28
2016-11-10T11:54:33.288Z,29.37
2016-11-10T11:55:46.996Z,29.27
2016-11-10T11:57:00.148Z,29.31
2016-11-10T11:58:13.782Z,29.28
2016-11-10T11:59:27.459Z,29.21
2016-11-10T12:00:41.113Z,29.49
2016-11-10T12:01:54.167Z,29.65
2016-11-10T12:03:07.251Z,29.63
2016-11-10T12:04:20.867Z,29.54
2016-11-10T12:05:33.942Z,29.44
2016-11-10T12:06:47.658Z,29.49
2016-11-10T12:08:01.297Z,29.41
2016-11-10T12:09:14.359Z,29.39
2016-11-10T12:10:27.405Z,29.18
2016-11-10T12:11:40.493Z,29.28
2016-11-10T12:12:54.105Z,29.21
2016-11-10T12:14:07.252Z,29.27
2016-11-10T12:15:20.395Z,29.41
2016-11-10T12:16:33.955Z,29.44
2016-11-10T12:17:47.647Z,29.41
2016-11-10T12:19:01.256Z,29.41
2016-11-10T12:20:14.359Z,29.1
2016-11-10T12:21:28.020Z,28.94
2016-11-10T12:22:41.615Z,28.83
2016-11-10T12:23:55.194Z,28.81
2016-11-10T12:25:08.858Z,28.96
2016-11-10T12:26:21.895Z,28.98
2016-11-10T12:27:34.503Z,28.94
2016-11-10T12:28:48.174Z,29.13
2016-11-10T12:30:01.769Z,29.49
2016-11-10T12:31:14.877Z,29.5
2016-11-10T12:32:27.965Z,29.43
2016-11-10T12:33:41.126Z,29.41
2016-11-10T12:34:54.772Z,29.27
2016-11-10T12:36:07.273Z,29.22
2016-11-10T12:37:20.945Z,29.4
2016-11-10T12:38:34.586Z,29.28
2016-11-10T12:39:48.185Z,29.4
2016-11-10T12:41:01.800Z,29.47
2016-11-10T12:42:14.921Z,29.34
2016-11-10T12:43:28.553Z,29.24
2016-11-10T12:44:41.671Z,29.47
2016-11-10T12:45:54.758Z,29.68
2016-11-10T12:47:07.822Z,29.76
2016-11-10T12:48:20.882Z,29.78
2016-11-10T12:49:33.466Z,29.63
2016-11-10T12:50:46.580Z,29.58
2016-11-10T12:52:00.241Z,29.47
2016-11-10T12:53:13.400Z,29.41
2016-11-10T12:54:26.707Z,29.13
2016-11-10T12:55:40.314Z,28.84
2016-11-10T12:56:53.936Z,29.03
2016-11-10T12:58:07.175Z,29.19
2016-11-10T12:59:19.191Z,29.25
2016-11-10T13:00:32.815Z,29.17
2016-11-10T13:01:46.349Z,29.07
2016-11-10T13:02:58.896Z,28.86
2016-11-10T13:04:12.534Z,28.75
2016-11-10T13:05:25.586Z,28.69
2016-11-10T13:06:38.618Z,28.71
2016-11-10T13:07:52.597Z,28.93
2016-11-10T13:09:05.851Z,29.21
2016-11-10T13:10:19.541Z,29.54
2016-11-10T13:11:32.022Z,29.84
2016-11-10T13:12:44.575Z,30.07
2016-11-10T13:13:57.767Z,30.18
2016-11-10T13:15:11.369Z,30.39
2016-11-10T13:16:24.987Z,30.26
2016-11-10T13:17:38.119Z,30.11
2016-11-10T13:18:51.206Z,29.95
2016-11-10T13:20:04.342Z,30.03
2016-11-10T13:21:17.376Z,30.22
2016-11-10T13:22:30.984Z,30.51
2016-11-10T13:23:44.013Z,30.82
2016-11-10T13:24:56.578Z,30.77
2016-11-10T13:26:10.093Z,30.52
2016-11-10T13:27:23.147Z,30.4
2016-11-10T13:28:36.201Z,30.53
2016-11-10T13:29:49.824Z,30.82
2016-11-10T13:31:02.865Z,30.95
2016-11-10T13:32:15.977Z,31.11
2016-11-10T13:33:29.025Z,31.17
2016-11-10T13:34:42.110Z,31.27
2016-11-10T13:35:55.677Z,31.34
2016-11-10T13:37:09.342Z,31.56
2016-11-10T13:38:22.383Z,31.75
2016-11-10T13:39:36.088Z,31.68
2016-11-10T13:40:49.666Z,31.67
2016-11-10T13:42:02.784Z,31.59
2016-11-10T13:43:15.342Z,31.46
2016-11-10T13:44:27.390Z,31.33
2016-11-10T13:45:40.962Z,31.24
2016-11-10T13:46:54.017Z,31.51
2016-11-10T13:48:07.738Z,31.54
2016-11-10T13:49:20.893Z,31.56
2016-11-10T13:50:34.424Z,31.79
2016-11-10T13:51:47.615Z,31.75
2016-11-10T13:53:01.308Z,31.45
2016-11-10T13:54:14.927Z,31.2
2016-11-10T13:55:27.958Z,31.02
2016-11-10T13:56:41.530Z,31.01
2016-11-10T13:57:54.655Z,31.11
2016-11-10T13:59:07.196Z,31.2
2016-11-10T14:00:20.760Z,31.1
2016-11-10T14:01:32.727Z,30.99
2016-11-10T14:02:45.354Z,31.08
2016-11-10T14:03:59.259Z,30.99
2016-11-10T14:05:12.830Z,30.9
2016-11-10T14:06:25.862Z,30.92
2016-11-10T14:07:39.660Z,30.9
2016-11-10T14:08:53.276Z,30.93
2016-11-10T14:10:06.392Z,30.59
2016-11-10T14:11:20.133Z,30.55
2016-11-10T14:12:32.624Z,30.46
2016-11-10T14:13:46.139Z,30.32
2016-11-10T14:14:59.754Z,30.14
2016-11-10T14:16:13.403Z,29.99
2016-11-10T14:17:26.576Z,29.92
2016-11-10T14:18:39.608Z,29.91
2016-11-10T14:19:52.645Z,29.99
2016-11-10T14:21:05.776Z,29.99
2016-11-10T14:22:19.373Z,30.26
2016-11-10T14:23:32.418Z,30.17
2016-11-10T14:24:45.462Z,30.22
2016-11-10T14:25:58.505Z,30.07
2016-11-10T14:27:12.156Z,29.99
2016-11-10T14:28:24.725Z,29.99
2016-11-10T14:29:37.367Z,29.89
2016-11-10T14:30:50.400Z,30.02
2016-11-10T14:32:04.071Z,30.07
2016-11-10T14:33:48.251Z,30.03
2016-11-10T14:35:01.365Z,29.93
2016-11-10T14:36:14.428Z,29.86
2016-11-10T14:37:28.085Z,29.63
2016-11-10T14:38:41.198Z,29.47
2016-11-10T14:39:54.729Z,29.46
2016-11-10T14:41:07.830Z,29.56
2016-11-10T14:42:20.819Z,29.65
2016-11-10T14:43:33.378Z,29.59
2016-11-10T14:44:45.939Z,29.63
2016-11-10T14:45:58.029Z,29.71
2016-11-10T14:47:11.680Z,29.74
2016-11-10T14:48:25.234Z,29.76
2016-11-10T14:49:37.307Z,29.62
2016-11-10T14:50:50.399Z,29.61
2016-11-10T14:52:03.559Z,29.54
2016-11-10T14:53:17.246Z,29.49
2016-11-10T14:54:30.919Z,29.44
2016-11-10T14:55:44.527Z,29.59
2016-11-10T14:56:57.054Z,29.52
2016-11-10T14:58:10.796Z,29.52
2016-11-10T14:59:23.879Z,29.59
2016-11-10T15:00:37.526Z,29.63
2016-11-10T15:01:50.607Z,29.65
2016-11-10T15:03:03.730Z,29.8
2016-11-10T15:04:17.216Z,29.86
2016-11-10T15:05:30.719Z,29.83
2016-11-10T15:06:44.299Z,29.78
2016-11-10T15:07:57.922Z,29.78
2016-11-10T15:09:11.014Z,29.78
2016-11-10T15:10:24.677Z,29.84
2016-11-10T15:11:38.385Z,29.95
2016-11-10T15:12:51.495Z,30
2016-11-10T15:14:04.585Z,30.03
2016-11-10T15:15:18.202Z,29.86
2016-11-10T15:16:31.755Z,29.81
2016-11-10T15:17:45.341Z,29.77
2016-11-10T15:18:58.434Z,29.81
2016-11-10T15:20:12.047Z,29.78
2016-11-10T15:21:25.619Z,29.78
2016-11-10T15:22:38.714Z,29.83
2016-11-10T15:23:51.293Z,29.8
2016-11-10T15:25:03.895Z,29.91
2016-11-10T15:26:16.459Z,29.86
2016-11-10T15:27:29.582Z,29.87
2016-11-10T15:28:42.729Z,29.73
2016-11-10T15:29:56.279Z,29.61
2016-11-10T15:31:09.306Z,29.63
2016-11-10T15:32:22.949Z,29.73
2016-11-10T15:33:36.692Z,29.77
2016-11-10T15:34:50.324Z,29.81
2016-11-10T15:36:02.905Z,29.86
2016-11-10T15:37:15.986Z,29.81
2016-11-10T15:38:28.506Z,29.71
2016-11-10T15:39:41.543Z,29.8
2016-11-10T15:40:55.186Z,29.68
2016-11-10T15:42:08.762Z,29.56
2016-11-10T15:43:22.413Z,29.28
2016-11-10T15:44:36.045Z,29.19
2016-11-10T15:45:49.076Z,29.13
2016-11-10T15:47:02.124Z,29.15
2016-11-10T15:48:15.258Z,29.33
2016-11-10T15:49:59.517Z,29.27
2016-11-10T15:51:12.635Z,29.31
2016-11-10T15:52:25.679Z,29.37
2016-11-10T15:53:39.326Z,29.49